Time;durP1;ratioP1;P1;durP2;ratioP2;P2;SDS_P1;SDS_P2;PMS_P1;PMS_P2;Temp;Humidity;BMP_temperature;BMP_pressure;BME280_temperature;BME280_humidity;BME280_pressure;Samples;Min_cycle;Max_cycle;Signal;HPM_P1;HPM_P2
2021/04/19 00:02:20;;;;;;;9.18;3.35;;;8.20;99.90;;;;;;5049269;28;20043;-73
2021/04/19 00:04:46;;;;;;;9.82;2.83;;;8.20;99.90;;;;;;5054683;28;20029;-73
2021/04/19 00:07:12;;;;;;;7.68;2.58;;;8.20;99.90;;;;;;5053308;28;20723;-73
2021/04/19 00:09:38;;;;;;;11.43;3.05;;;8.10;99.90;;;;;;5052883;28;20529;-73
2021/04/19 00:12:05;;;;;;;6.85;2.72;;;8.10;99.90;;;;;;5055301;28;20536;-73
2021/04/19 00:14:31;;;;;;;5.30;2.70;;;8.10;99.90;;;;;;5057961;28;20028;-72
2021/04/19 00:16:56;;;;;;;8.85;2.97;;;8.00;99.90;;;;;;5056657;28;20028;-74
2021/04/19 00:19:22;;;;;;;9.52;3.25;;;8.00;99.90;;;;;;5055859;28;20506;-72
2021/04/19 00:21:47;;;;;;;8.73;3.45;;;7.90;99.90;;;;;;5053371;28;20037;-73
2021/04/19 00:24:13;;;;;;;8.32;3.88;;;7.90;99.90;;;;;;5054309;28;20073;-73
2021/04/19 00:26:39;;;;;;;10.85;3.65;;;7.90;99.90;;;;;;5055349;28;20596;-73
2021/04/19 00:29:05;;;;;;;6.97;3.35;;;7.90;99.90;;;;;;5052722;28;20041;-74
2021/04/19 00:31:31;;;;;;;13.00;4.47;;;7.90;99.90;;;;;;5057329;28;20060;-72
2021/04/19 00:33:57;;;;;;;12.40;3.55;;;7.90;99.90;;;;;;5051347;28;20052;-73
2021/04/19 00:36:22;;;;;;;11.10;4.07;;;7.90;99.90;;;;;;5056652;28;20039;-73
2021/04/19 00:38:48;;;;;;;8.10;3.78;;;7.80;99.90;;;;;;5054591;28;20462;-73
2021/04/19 00:41:13;;;;;;;8.57;3.17;;;7.70;99.90;;;;;;5058239;28;20069;-73
2021/04/19 00:43:39;;;;;;;9.98;4.07;;;7.70;99.90;;;;;;5054088;28;20074;-73
2021/04/19 00:46:06;;;;;;;9.52;3.20;;;7.70;99.90;;;;;;5050814;28;20098;-73
2021/04/19 00:48:33;;;;;;;12.40;3.97;;;7.70;99.90;;;;;;5055645;28;20036;-72
2021/04/19 00:50:59;;;;;;;11.18;4.68;;;7.70;99.90;;;;;;5051585;28;20053;-74
2021/04/19 00:53:26;;;;;;;12.23;3.95;;;7.70;99.90;;;;;;5056211;28;20458;-73
2021/04/19 00:55:53;;;;;;;12.25;4.60;;;7.70;99.90;;;;;;5053231;28;20028;-73
2021/04/19 00:58:21;;;;;;;10.30;4.18;;;7.60;99.90;;;;;;5053358;28;20036;-72
2021/04/19 01:00:47;;;;;;;11.65;4.07;;;7.60;99.90;;;;;;5052344;28;20039;-74
2021/04/19 01:03:13;;;;;;;11.95;4.90;;;7.60;99.90;;;;;;5055626;28;20555;-73
2021/04/19 01:05:41;;;;;;;16.05;5.32;;;7.50;99.90;;;;;;5053675;28;20064;-73
2021/04/19 01:08:10;;;;;;;19.42;5.07;;;7.50;99.90;;;;;;5053773;28;20032;-73
2021/04/19 01:10:36;;;;;;;9.50;4.53;;;7.50;99.90;;;;;;5047876;28;20041;-74
2021/04/19 01:13:04;;;;;;;10.00;4.53;;;7.40;99.90;;;;;;5053807;28;20029;-73
2021/04/19 01:15:30;;;;;;;18.60;5.88;;;7.40;99.90;;;;;;5054814;28;20044;-73
2021/04/19 01:17:55;;;;;;;12.38;5.25;;;7.40;99.90;;;;;;5054103;28;20033;-73
2021/04/19 01:20:27;;;;;;;14.10;4.97;;;7.40;99.90;;;;;;5054250;28;20105;-73
2021/04/19 01:22:54;;;;;;;13.73;5.60;;;7.30;99.90;;;;;;5055640;28;20168;-73
2021/04/19 01:25:29;;;;;;;17.88;6.68;;;7.40;99.90;;;;;;5054961;28;20074;-73
2021/04/19 01:27:56;;;;;;;16.73;6.32;;;7.40;99.90;;;;;;5054637;28;20045;-73
2021/04/19 01:30:24;;;;;;;15.38;6.05;;;7.30;99.90;;;;;;5055126;28;20040;-73
2021/04/19 01:32:50;;;;;;;20.60;7.20;;;7.30;99.90;;;;;;5053999;28;20056;-73
2021/04/19 01:35:16;;;;;;;19.73;6.30;;;7.30;99.90;;;;;;5054240;28;20205;-74
2021/04/19 01:37:42;;;;;;;13.63;5.80;;;7.30;99.90;;;;;;5056708;28;20055;-73
2021/04/19 01:40:10;;;;;;;14.95;6.07;;;7.30;99.90;;;;;;5056063;28;20039;-73
2021/04/19 01:42:36;;;;;;;14.32;6.10;;;7.20;99.90;;;;;;5050726;28;20047;-73
2021/04/19 01:45:03;;;;;;;15.70;6.65;;;7.20;99.90;;;;;;5057116;28;20107;-72
2021/04/19 01:47:28;;;;;;;19.33;7.18;;;7.10;99.90;;;;;;5056098;28;20586;-73
2021/04/19 01:49:54;;;;;;;16.10;6.82;;;7.00;99.90;;;;;;5052646;28;20138;-74
2021/04/19 01:52:20;;;;;;;15.88;7.15;;;7.00;99.90;;;;;;5055410;28;20562;-73
2021/04/19 01:54:46;;;;;;;17.80;6.85;;;7.00;99.90;;;;;;5054497;28;20032;-74
2021/04/19 01:57:11;;;;;;;12.75;6.05;;;6.90;99.90;;;;;;5053973;28;20060;-73
2021/04/19 01:59:39;;;;;;;15.88;7.25;;;6.90;99.90;;;;;;5055468;28;20043;-75
2021/04/19 02:02:19;;;;;;;14.02;6.70;;;6.90;99.90;;;;;;5053727;28;20067;-72
2021/04/19 02:05:10;;;;;;;15.80;6.30;;;6.90;99.90;;;;;;5052399;28;20055;-74
2021/04/19 02:07:57;;;;;;;15.65;6.22;;;6.90;99.90;;;;;;5047581;28;20064;-73
2021/04/19 02:10:34;;;;;;;20.15;7.07;;;6.80;99.90;;;;;;5050763;28;20124;-73
2021/04/19 02:13:06;;;;;;;24.05;8.35;;;6.80;99.90;;;;;;5044839;28;20036;-73
2021/04/19 02:15:45;;;;;;;20.15;7.43;;;6.80;99.90;;;;;;5052906;28;20032;-72
2021/04/19 02:18:35;;;;;;;19.77;7.55;;;6.80;99.90;;;;;;5050592;28;20036;-73
2021/04/19 02:21:13;;;;;;;16.98;7.18;;;6.70;99.90;;;;;;5048736;28;20083;-74
2021/04/19 02:23:47;;;;;;;18.92;7.40;;;6.70;99.90;;;;;;5047970;28;20491;-73
2021/04/19 02:26:20;;;;;;;19.85;8.23;;;6.70;99.90;;;;;;5054452;28;20044;-74
2021/04/19 02:29:15;;;;;;;22.40;8.48;;;6.70;99.90;;;;;;5052106;28;20048;-74
2021/04/19 02:31:53;;;;;;;17.95;7.93;;;6.60;99.90;;;;;;5049492;28;20037;-73
2021/04/19 02:34:20;;;;;;;18.65;7.45;;;6.50;99.90;;;;;;5052742;28;20043;-74
2021/04/19 02:36:49;;;;;;;17.15;7.22;;;6.50;99.90;;;;;;5054272;28;20040;-73
2021/04/19 02:39:16;;;;;;;16.35;6.88;;;6.50;99.90;;;;;;5053350;28;20056;-74
2021/04/19 02:41:47;;;;;;;24.00;8.55;;;6.50;99.90;;;;;;5054850;28;20041;-74
2021/04/19 02:44:14;;;;;;;;;;;6.50;99.90;;;;;;5056512;28;20047;-73
2021/04/19 02:46:40;;;;;;;23.15;8.27;;;6.40;99.90;;;;;;5052758;28;19967;-73
2021/04/19 02:49:07;;;;;;;22.08;8.38;;;6.40;99.90;;;;;;5049052;28;20057;-73
2021/04/19 02:51:33;;;;;;;23.40;8.10;;;6.40;99.90;;;;;;5050743;28;20032;-74
2021/04/19 02:54:01;;;;;;;23.42;9.98;;;6.30;99.90;;;;;;5045407;28;20094;-74
2021/04/19 02:56:28;;;;;;;19.58;7.90;;;6.30;99.90;;;;;;5052002;28;20539;-73
2021/04/19 02:59:02;;;;;;;19.70;7.60;;;6.30;99.90;;;;;;5051656;28;20049;-74
2021/04/19 03:01:30;;;;;;;20.85;8.40;;;6.30;99.90;;;;;;5131982;22;20025;-74
2021/04/19 03:03:59;;;;;;;22.38;9.40;;;6.30;99.90;;;;;;5070401;28;20032;-73
2021/04/19 03:06:28;;;;;;;23.77;9.10;;;6.30;99.90;;;;;;5072736;28;20048;-73
2021/04/19 03:08:57;;;;;;;26.10;9.82;;;6.20;99.90;;;;;;5078705;28;20040;-73
2021/04/19 03:11:46;;;;;;;28.13;10.10;;;6.20;99.90;;;;;;5068332;28;20020;-74
2021/04/19 03:14:14;;;;;;;27.15;10.65;;;6.20;99.90;;;;;;5055133;28;20041;-73
2021/04/19 03:16:47;;;;;;;23.58;9.57;;;6.20;99.90;;;;;;5057610;28;20040;-73
2021/04/19 03:19:16;;;;;;;32.42;10.38;;;6.20;99.90;;;;;;5056098;28;20040;-74
2021/04/19 03:21:43;;;;;;;28.17;9.77;;;6.20;99.90;;;;;;5056302;28;20522;-74
2021/04/19 03:24:11;;;;;;;28.50;10.15;;;6.20;99.90;;;;;;5056183;28;20061;-73
2021/04/19 03:26:39;;;;;;;28.40;10.48;;;6.10;99.90;;;;;;5057271;28;20028;-73
2021/04/19 03:29:05;;;;;;;24.67;10.35;;;6.10;99.90;;;;;;5056792;28;20086;-74
2021/04/19 03:31:51;;;;;;;28.13;10.13;;;6.10;99.90;;;;;;5055616;28;20036;-73
2021/04/19 03:34:26;;;;;;;23.75;10.70;;;6.10;99.90;;;;;;5053423;28;20454;-73
2021/04/19 03:36:58;;;;;;;23.13;11.23;;;6.10;99.90;;;;;;5058340;28;20039;-72
2021/04/19 03:39:25;;;;;;;27.00;10.48;;;6.00;99.90;;;;;;5052191;28;20110;-72
2021/04/19 03:41:54;;;;;;;33.50;11.93;;;6.00;99.90;;;;;;5053875;28;20478;-72
2021/04/19 03:44:27;;;;;;;26.63;10.90;;;6.00;99.90;;;;;;5058434;28;20036;-73
2021/04/19 03:46:55;;;;;;;29.88;11.40;;;6.00;99.90;;;;;;5056271;28;20085;-74
2021/04/19 03:49:27;;;;;;;30.88;10.80;;;5.90;99.90;;;;;;5056254;28;20039;-73
2021/04/19 03:51:57;;;;;;;30.52;11.90;;;5.90;99.90;;;;;;5054955;28;20024;-73
2021/04/19 03:54:29;;;;;;;33.53;11.90;;;5.90;99.90;;;;;;5055624;28;20036;-73
2021/04/19 03:56:56;;;;;;;25.70;10.85;;;5.90;99.90;;;;;;5055976;28;20051;-73
2021/04/19 03:59:24;;;;;;;28.17;12.43;;;5.80;99.90;;;;;;5052671;28;20508;-72
2021/04/19 04:01:51;;;;;;;31.55;11.75;;;5.80;99.90;;;;;;5057118;28;20043;-73
2021/04/19 04:04:19;;;;;;;35.58;12.20;;;5.80;99.90;;;;;;5056253;28;20098;-73
2021/04/19 04:06:45;;;;;;;33.60;12.75;;;5.80;99.90;;;;;;5056221;28;20033;-73
2021/04/19 04:09:13;;;;;;;30.85;11.40;;;5.80;99.90;;;;;;5056902;28;20128;-73
2021/04/19 04:11:39;;;;;;;28.63;13.00;;;5.80;99.90;;;;;;5058535;28;20043;-72
2021/04/19 04:14:05;;;;;;;31.73;13.57;;;5.80;99.90;;;;;;5056655;28;20116;-74
2021/04/19 04:16:30;;;;;;;33.03;12.50;;;5.80;99.90;;;;;;5058912;28;20025;-73
2021/04/19 04:18:57;;;;;;;24.73;11.70;;;5.70;99.90;;;;;;5056266;28;20098;-73
2021/04/19 04:21:24;;;;;;;37.47;13.73;;;5.60;99.90;;;;;;5054469;28;20041;-73
2021/04/19 04:23:50;;;;;;;28.67;12.75;;;5.70;99.90;;;;;;5055470;28;20041;-73
2021/04/19 04:26:16;;;;;;;29.95;12.80;;;5.60;99.90;;;;;;5056325;28;20087;-72
2021/04/19 04:28:44;;;;;;;27.98;13.15;;;5.60;99.90;;;;;;5054510;28;20048;-73
2021/04/19 04:31:10;;;;;;;31.20;12.13;;;5.60;99.90;;;;;;5056064;28;20079;-73
2021/04/19 04:33:36;;;;;;;30.80;13.40;;;5.60;99.90;;;;;;5059057;28;20055;-73
2021/04/19 04:36:01;;;;;;;32.45;14.13;;;5.60;99.90;;;;;;5055733;28;20037;-72
2021/04/19 04:38:27;;;;;;;31.80;12.60;;;5.50;99.90;;;;;;5057774;28;20021;-73
2021/04/19 04:40:53;;;;;;;32.42;12.75;;;5.50;99.90;;;;;;5055342;28;20029;-73
2021/04/19 04:43:24;;;;;;;35.33;13.75;;;5.60;99.90;;;;;;5059648;28;20398;-72
2021/04/19 04:45:55;;;;;;;35.97;14.07;;;5.50;99.90;;;;;;5061912;28;20032;-73
2021/04/19 04:48:23;;;;;;;;;;;5.50;99.90;;;;;;5061398;28;20159;-73
2021/04/19 04:50:56;;;;;;;33.38;13.13;;;5.50;99.90;;;;;;5055323;28;19912;-73
2021/04/19 04:53:27;;;;;;;35.75;13.82;;;5.50;99.90;;;;;;5048371;28;20120;-72
2021/04/19 04:55:55;;;;;;;30.27;13.20;;;5.50;99.90;;;;;;5051117;28;20032;-73
2021/04/19 04:58:22;;;;;;;30.98;13.70;;;5.50;99.90;;;;;;5047966;28;20036;-72
2021/04/19 05:00:49;;;;;;;33.05;12.90;;;5.50;99.90;;;;;;5057073;28;20701;-72
2021/04/19 05:03:16;;;;;;;32.15;12.85;;;5.50;99.90;;;;;;5048226;28;20040;-73
2021/04/19 05:05:44;;;;;;;27.92;13.52;;;5.50;99.90;;;;;;5056447;28;20568;-72
2021/04/19 05:08:14;;;;;;;32.58;13.30;;;5.50;99.90;;;;;;5055405;28;20052;-72
2021/04/19 05:10:40;;;;;;;22.27;9.65;;;5.50;99.90;;;;;;5059227;28;20035;-73
2021/04/19 05:13:24;;;;;;;30.65;12.80;;;5.60;99.90;;;;;;5052507;28;20082;-72
2021/04/19 05:15:50;;;;;;;31.80;13.40;;;5.60;99.90;;;;;;5054791;28;20017;-72
2021/04/19 05:18:19;;;;;;;26.90;12.82;;;5.60;99.90;;;;;;5047032;28;20047;-73
2021/04/19 05:20:46;;;;;;;32.67;13.80;;;5.60;99.90;;;;;;5053386;28;20036;-72
2021/04/19 05:23:15;;;;;;;27.02;13.18;;;5.60;99.90;;;;;;5050556;28;20159;-73
2021/04/19 05:25:41;;;;;;;33.42;13.13;;;5.70;99.90;;;;;;5054465;28;20109;-72
2021/04/19 05:28:08;;;;;;;25.67;12.23;;;5.70;99.90;;;;;;5049384;28;20053;-72
2021/04/19 05:30:34;;;;;;;29.17;13.48;;;5.70;99.90;;;;;;5053196;28;20025;-71
2021/04/19 05:33:02;;;;;;;35.50;13.07;;;5.70;99.90;;;;;;5051951;28;20099;-73
2021/04/19 05:35:29;;;;;;;34.33;12.57;;;5.70;99.90;;;;;;5053213;28;20544;-71
2021/04/19 05:37:55;;;;;;;28.10;11.95;;;5.80;99.90;;;;;;5048178;28;20133;-73
2021/04/19 05:40:25;;;;;;;30.90;12.80;;;5.80;99.90;;;;;;5053106;28;20086;-72
2021/04/19 05:42:51;;;;;;;27.85;12.93;;;5.90;99.90;;;;;;5054373;28;20037;-72
2021/04/19 05:45:17;;;;;;;29.98;12.63;;;6.00;99.90;;;;;;5049594;28;20131;-73
2021/04/19 05:47:47;;;;;;;26.50;11.70;;;6.10;99.90;;;;;;5053519;28;20036;-72
2021/04/19 05:50:19;;;;;;;30.83;11.55;;;6.10;99.90;;;;;;5048435;28;20052;-73
2021/04/19 05:52:46;;;;;;;26.13;11.93;;;6.20;99.90;;;;;;5058032;28;20040;-73
2021/04/19 05:55:14;;;;;;;37.15;12.90;;;6.30;99.90;;;;;;5049521;28;20076;-73
2021/04/19 05:57:45;;;;;;;28.05;11.95;;;6.40;99.90;;;;;;5050549;28;20060;-73
2021/04/19 06:00:20;;;;;;;25.45;11.25;;;6.50;99.90;;;;;;5048968;28;20723;-72
2021/04/19 06:02:54;;;;;;;24.23;10.80;;;6.70;99.90;;;;;;5048994;28;20132;-73
2021/04/19 06:05:28;;;;;;;29.23;10.55;;;6.80;99.90;;;;;;5047669;28;20441;-73
2021/04/19 06:08:19;;;;;;;24.00;10.20;;;6.90;99.90;;;;;;5051538;28;20052;-72
2021/04/19 06:10:48;;;;;;;;;;;7.00;99.90;;;;;;5044675;28;20486;-72
2021/04/19 06:13:16;;;;;;;24.73;10.57;;;7.10;99.90;;;;;;5050951;28;20451;-73
2021/04/19 06:15:44;;;;;;;24.20;9.68;;;7.20;99.90;;;;;;5051420;28;20694;-72
2021/04/19 06:18:12;;;;;;;24.40;10.38;;;7.30;99.90;;;;;;5049985;28;20036;-72
2021/04/19 06:20:38;;;;;;;21.95;10.05;;;7.40;99.90;;;;;;5052044;28;20425;-71
2021/04/19 06:23:05;;;;;;;22.05;9.00;;;7.50;99.90;;;;;;5048808;28;20031;-72
2021/04/19 06:25:31;;;;;;;25.58;10.75;;;7.60;99.90;;;;;;5052254;28;20044;-72
2021/04/19 06:28:02;;;;;;;28.05;10.65;;;7.70;99.90;;;;;;5049699;28;20041;-73
2021/04/19 06:30:32;;;;;;;22.63;9.90;;;7.90;99.90;;;;;;5055815;28;20060;-72
2021/04/19 06:32:59;;;;;;;21.65;9.00;;;7.90;99.90;;;;;;5050962;28;20102;-74
2021/04/19 06:35:25;;;;;;;26.55;9.52;;;8.00;99.90;;;;;;5051263;28;20033;-72
2021/04/19 06:37:56;;;;;;;25.85;9.90;;;8.10;99.90;;;;;;5052748;28;20032;-72
2021/04/19 06:40:22;;;;;;;18.15;8.10;;;8.30;99.90;;;;;;5057633;28;20052;-72
2021/04/19 06:42:48;;;;;;;21.77;8.27;;;8.30;99.90;;;;;;5058600;28;20075;-72
2021/04/19 06:45:15;;;;;;;22.90;8.52;;;8.50;99.90;;;;;;5055475;28;20710;-72
2021/04/19 06:47:42;;;;;;;19.35;8.73;;;8.40;99.90;;;;;;5054571;28;20186;-72
2021/04/19 06:50:08;;;;;;;21.33;9.30;;;8.40;99.90;;;;;;5052845;28;20132;-72
2021/04/19 06:52:34;;;;;;;17.75;7.88;;;8.50;99.90;;;;;;5050735;28;20502;-71
2021/04/19 06:55:01;;;;;;;19.80;9.52;;;8.40;99.90;;;;;;5049895;28;20033;-72
2021/04/19 06:57:33;;;;;;;19.08;8.82;;;8.40;99.90;;;;;;5055012;28;20036;-72
2021/04/19 07:00:01;;;;;;;18.73;8.93;;;8.50;99.90;;;;;;5050948;28;20043;-72
2021/04/19 07:02:27;;;;;;;17.38;8.35;;;8.50;99.90;;;;;;5054196;28;20041;-72
2021/04/19 07:04:54;;;;;;;21.15;8.35;;;8.50;99.90;;;;;;5054966;28;20302;-73
2021/04/19 07:07:25;;;;;;;18.13;8.10;;;8.60;99.90;;;;;;5055228;28;20033;-73
2021/04/19 07:09:55;;;;;;;15.60;7.95;;;8.70;99.90;;;;;;5049865;28;20517;-72
2021/04/19 07:12:24;;;;;;;18.02;8.77;;;8.90;99.90;;;;;;5053542;28;20037;-73
2021/04/19 07:14:52;;;;;;;21.95;9.30;;;9.00;99.90;;;;;;5053943;28;20044;-72
2021/04/19 07:17:18;;;;;;;18.63;8.35;;;9.10;99.90;;;;;;5049662;28;20090;-73
2021/04/19 07:19:44;;;;;;;18.55;8.40;;;9.20;99.90;;;;;;5053447;28;20029;-73
2021/04/19 07:22:11;;;;;;;18.70;9.23;;;9.20;99.90;;;;;;5050385;28;20040;-73
2021/04/19 07:24:38;;;;;;;21.70;9.77;;;9.20;99.90;;;;;;5052154;28;20044;-73
2021/04/19 07:27:05;;;;;;;17.90;8.40;;;9.20;99.90;;;;;;5051367;28;20553;-72
2021/04/19 07:29:30;;;;;;;18.15;9.18;;;9.20;99.90;;;;;;5053444;28;20037;-73
2021/04/19 07:31:58;;;;;;;20.95;9.07;;;9.40;99.90;;;;;;5050823;28;20439;-72
2021/04/19 07:34:26;;;;;;;17.65;9.05;;;9.60;99.90;;;;;;5050787;28;20607;-73
2021/04/19 07:36:54;;;;;;;20.70;8.38;;;9.70;99.90;;;;;;5053030;28;20508;-73
2021/04/19 07:39:21;;;;;;;23.75;8.52;;;9.90;99.90;;;;;;5053011;28;20469;-73
2021/04/19 07:41:55;;;;;;;17.10;8.40;;;10.10;99.90;;;;;;5046267;28;20052;-73
2021/04/19 07:44:50;;;;;;;18.80;7.97;;;10.20;99.90;;;;;;5051583;28;20048;-72
2021/04/19 07:47:19;;;;;;;20.80;9.25;;;10.40;99.90;;;;;;5050627;28;20043;-72
2021/04/19 07:50:08;;;;;;;18.27;8.20;;;10.40;99.90;;;;;;5052074;28;20032;-73
2021/04/19 07:52:36;;;;;;;18.35;8.00;;;10.50;99.90;;;;;;5040633;28;20036;-72
2021/04/19 07:55:08;;;;;;;16.48;8.38;;;10.60;99.90;;;;;;5051396;28;20131;-72
2021/04/19 07:57:34;;;;;;;19.77;8.68;;;10.60;99.90;;;;;;5054333;28;20036;-72
2021/04/19 07:59:59;;;;;;;19.90;9.32;;;10.50;99.90;;;;;;5052327;28;20040;-72
2021/04/19 08:02:25;;;;;;;17.27;8.60;;;10.50;99.90;;;;;;5050304;28;20062;-73
2021/04/19 08:04:53;;;;;;;20.15;8.65;;;10.50;99.90;;;;;;5052053;28;20017;-71
2021/04/19 08:07:29;;;;;;;19.27;8.65;;;10.70;99.90;;;;;;5054061;28;20045;-72
2021/04/19 08:09:56;;;;;;;18.75;8.73;;;10.80;99.90;;;;;;5052535;28;20043;-72
2021/04/19 08:12:42;;;;;;;17.15;9.00;;;10.90;99.90;;;;;;5051922;28;20139;-72
2021/04/19 08:15:12;;;;;;;18.75;8.02;;;11.30;99.90;;;;;;5052252;28;20080;-72
2021/04/19 08:17:38;;;;;;;17.63;8.13;;;11.50;99.90;;;;;;5051235;28;20033;-72
2021/04/19 08:20:09;;;;;;;14.40;7.50;;;11.70;99.90;;;;;;5052147;28;20037;-73
2021/04/19 08:22:36;;;;;;;18.25;7.70;;;11.90;99.90;;;;;;5049478;28;20050;-74
2021/04/19 08:25:17;;;;;;;25.75;8.20;;;12.20;99.90;;;;;;5054351;28;20083;-70
2021/04/19 08:27:44;;;;;;;17.95;8.25;;;12.40;99.90;;;;;;5051814;28;20041;-73
2021/04/19 08:30:12;;;;;;;19.50;8.63;;;12.50;99.90;;;;;;5051494;28;20089;-73
2021/04/19 08:32:38;;;;;;;16.27;8.25;;;12.70;99.90;;;;;;5051509;28;20045;-74
2021/04/19 08:35:05;;;;;;;15.45;7.88;;;12.90;99.90;;;;;;5053209;28;20056;-73
2021/04/19 08:37:32;;;;;;;17.40;7.53;;;12.90;99.90;;;;;;5050989;28;20048;-73
2021/04/19 08:39:59;;;;;;;16.67;8.40;;;12.90;99.90;;;;;;5050839;28;20039;-73
2021/04/19 08:42:26;;;;;;;19.02;8.45;;;12.90;99.90;;;;;;5054843;28;20132;-72
2021/04/19 08:44:56;;;;;;;22.52;7.85;;;12.90;99.90;;;;;;5054192;28;20389;-72
2021/04/19 08:47:27;;;;;;;15.02;7.93;;;12.80;99.90;;;;;;5050980;28;20036;-72
2021/04/19 08:49:54;;;;;;;19.33;8.38;;;13.00;99.90;;;;;;5051556;28;20032;-72
2021/04/19 08:52:20;;;;;;;19.55;9.18;;;12.90;99.90;;;;;;5051533;28;20048;-71
2021/04/19 08:54:46;;;;;;;16.20;8.32;;;12.90;99.90;;;;;;5054532;28;20028;-71
2021/04/19 08:57:12;;;;;;;18.63;8.35;;;12.90;99.90;;;;;;5052328;28;20127;-74
2021/04/19 08:59:38;;;;;;;19.92;8.48;;;12.90;99.90;;;;;;5050041;28;20119;-72
2021/04/19 09:02:05;;;;;;;19.40;8.75;;;13.00;99.90;;;;;;5052199;28;20371;-71
2021/04/19 09:04:30;;;;;;;14.40;8.20;;;13.20;99.90;;;;;;5050264;28;20033;-73
2021/04/19 09:06:58;;;;;;;15.68;7.75;;;13.30;99.90;;;;;;5046631;28;20029;-73
2021/04/19 09:09:34;;;;;;;20.55;7.88;;;13.30;99.90;;;;;;5051730;28;20052;-73
2021/04/19 09:12:21;;;;;;;16.80;7.78;;;13.50;99.90;;;;;;5052923;28;20033;-73
2021/04/19 09:14:47;;;;;;;18.13;8.35;;;13.60;99.90;;;;;;5049259;28;20025;-72
2021/04/19 09:17:27;;;;;;;12.05;6.95;;;13.60;99.90;;;;;;5051278;28;20098;-73
2021/04/19 09:19:57;;;;;;;15.48;8.07;;;13.80;99.90;;;;;;5045282;28;20122;-73
2021/04/19 09:22:23;;;;;;;13.35;7.13;;;13.90;99.90;;;;;;5050979;28;20040;-73
2021/04/19 09:25:09;;;;;;;15.82;7.38;;;13.90;99.90;;;;;;5049731;28;20036;-73
2021/04/19 09:27:41;;;;;;;16.55;7.82;;;13.90;99.90;;;;;;5048899;28;20588;-74
2021/04/19 09:30:27;;;;;;;17.35;7.28;;;14.00;99.90;;;;;;5050598;28;20116;-74
2021/04/19 09:33:05;;;;;;;14.32;7.25;;;13.90;99.90;;;;;;5050227;28;20407;-74
2021/04/19 09:35:39;;;;;;;18.30;7.18;;;14.00;99.90;;;;;;5050141;28;20036;-74
2021/04/19 09:38:06;;;;;;;13.93;6.95;;;14.20;99.90;;;;;;5049530;28;20040;-73
2021/04/19 09:40:55;;;;;;;14.93;6.45;;;14.30;99.90;;;;;;5049486;28;20024;-74
2021/04/19 09:43:58;;;;;;;12.43;5.63;;;14.50;99.90;;;;;;5052686;28;20041;-74
2021/04/19 09:46:26;;;;;;;10.85;5.72;;;14.60;99.90;;;;;;5051673;28;20081;-73
2021/04/19 09:49:00;;;;;;;12.55;6.82;;;14.70;99.90;;;;;;5052663;28;20037;-74
2021/04/19 09:51:38;;;;;;;13.48;6.03;;;14.80;99.90;;;;;;5050511;28;20494;-73
2021/04/19 09:54:06;;;;;;;14.98;6.22;;;14.60;99.90;;;;;;5052071;28;20033;-73
2021/04/19 09:56:57;;;;;;;13.32;5.78;;;14.60;99.90;;;;;;5049569;28;20040;-73
2021/04/19 09:59:24;;;;;;;9.68;5.50;;;14.60;99.90;;;;;;5050342;28;20498;-73
2021/04/19 10:01:52;;;;;;;10.48;4.97;;;14.60;99.90;;;;;;5050983;28;20032;-74
2021/04/19 10:04:18;;;;;;;10.93;4.80;;;14.70;99.90;;;;;;5053134;28;20713;-73
2021/04/19 10:06:45;;;;;;;8.60;5.13;;;14.70;99.90;;;;;;5051830;28;20040;-75
2021/04/19 10:09:13;;;;;;;12.27;5.60;;;14.80;99.90;;;;;;5052502;28;20084;-73
2021/04/19 10:11:44;;;;;;;12.50;5.22;;;14.90;99.90;;;;;;5054387;28;20082;-72
2021/04/19 10:14:14;;;;;;;8.43;4.75;;;14.80;99.90;;;;;;5056208;28;20064;-71
2021/04/19 10:16:45;;;;;;;11.45;5.38;;;14.80;99.90;;;;;;5053581;28;20051;-73
2021/04/19 10:19:13;;;;;;;10.00;5.15;;;14.70;99.90;;;;;;5054347;28;20507;-73
2021/04/19 10:21:39;;;;;;;8.95;4.55;;;14.60;99.90;;;;;;5059231;28;20036;-71
2021/04/19 10:24:14;;;;;;;8.15;4.57;;;14.50;99.90;;;;;;5056434;28;20024;-71
2021/04/19 10:26:40;;;;;;;8.50;4.18;;;14.60;99.90;;;;;;5054674;28;20033;-74
2021/04/19 10:29:20;;;;;;;7.18;3.95;;;14.60;99.90;;;;;;5057234;28;20045;-73
2021/04/19 10:31:47;;;;;;;8.15;3.47;;;14.70;99.90;;;;;;5057198;28;20040;-72
2021/04/19 10:34:13;;;;;;;8.90;3.17;;;14.70;99.90;;;;;;5058814;28;20246;-73
2021/04/19 10:36:55;;;;;;;6.32;3.08;;;14.60;99.90;;;;;;5054550;28;20141;-73
2021/04/19 10:39:23;;;;;;;7.65;3.10;;;14.80;99.90;;;;;;5053967;28;20037;-73
2021/04/19 10:41:51;;;;;;;7.63;3.72;;;14.90;99.90;;;;;;5052421;28;20108;-71
2021/04/19 10:44:18;;;;;;;8.23;3.88;;;15.10;99.90;;;;;;5056026;28;20506;-71
2021/04/19 10:46:45;;;;;;;6.85;3.00;;;15.20;99.90;;;;;;5049743;28;20124;-72
2021/04/19 10:49:22;;;;;;;6.70;2.72;;;15.40;99.90;;;;;;5051328;28;20041;-73
2021/04/19 10:52:09;;;;;;;7.38;3.13;;;15.40;99.90;;;;;;5050130;28;20271;-72
2021/04/19 10:54:36;;;;;;;5.60;3.10;;;15.20;99.90;;;;;;5043989;28;20987;-73
2021/04/19 10:57:04;;;;;;;5.35;2.95;;;15.10;99.90;;;;;;5052729;28;20730;-74
2021/04/19 10:59:31;;;;;;;5.88;3.85;;;15.10;99.90;;;;;;5046194;28;20114;-73
2021/04/19 11:02:02;;;;;;;8.00;2.80;;;15.10;99.90;;;;;;5053002;28;20407;-71
2021/04/19 11:04:28;;;;;;;5.15;2.92;;;15.20;99.90;;;;;;5052383;28;20068;-72
2021/04/19 11:06:56;;;;;;;5.03;2.83;;;15.20;99.90;;;;;;5051301;28;20484;-73
2021/04/19 11:09:26;;;;;;;4.30;2.80;;;15.20;99.90;;;;;;5051788;28;20037;-73
2021/04/19 11:11:53;;;;;;;6.05;3.10;;;15.20;99.90;;;;;;5052837;28;20508;-73
2021/04/19 11:14:24;;;;;;;5.45;2.95;;;15.20;99.90;;;;;;5055505;28;20090;-73
2021/04/19 11:16:57;;;;;;;5.47;2.88;;;15.20;99.90;;;;;;5052573;28;20028;-73
2021/04/19 11:19:44;;;;;;;4.47;2.65;;;15.20;99.90;;;;;;5053122;28;20298;-72
2021/04/19 11:22:23;;;;;;;3.67;2.53;;;15.20;99.90;;;;;;5055303;28;20056;-73
2021/04/19 11:24:50;;;;;;;3.30;2.40;;;15.20;99.90;;;;;;5051447;28;20040;-73
2021/04/19 11:27:22;;;;;;;3.97;2.08;;;15.40;99.90;;;;;;5054552;28;20557;-73
2021/04/19 11:29:48;;;;;;;7.90;2.83;;;15.40;99.90;;;;;;5050717;28;20611;-72
2021/04/19 11:32:33;;;;;;;3.83;2.30;;;15.30;99.90;;;;;;5055711;28;20090;-73
2021/04/19 11:35:03;;;;;;;5.00;2.45;;;15.30;99.90;;;;;;5052688;28;20492;-73
2021/04/19 11:37:33;;;;;;;4.78;2.13;;;15.30;99.90;;;;;;5053986;28;20032;-72
2021/04/19 11:39:58;;;;;;;4.63;2.43;;;15.20;99.90;;;;;;5051074;28;20052;-73
2021/04/19 11:42:35;;;;;;;4.57;2.65;;;15.30;99.90;;;;;;5053362;28;20037;-73
2021/04/19 11:45:03;;;;;;;4.85;2.40;;;15.40;99.90;;;;;;5083798;28;20032;-72
2021/04/19 11:47:29;;;;;;;4.35;2.50;;;15.60;99.60;;;;;;5054529;28;20029;-72
2021/04/19 11:49:57;;;;;;;4.82;2.38;;;15.50;99.70;;;;;;5050896;28;20045;-73
2021/04/19 11:52:23;;;;;;;5.88;2.50;;;15.60;99.80;;;;;;5057047;28;20037;-73
2021/04/19 11:54:49;;;;;;;4.20;2.22;;;15.60;99.70;;;;;;5053921;28;20490;-72
2021/04/19 11:57:14;;;;;;;4.25;2.47;;;15.60;99.90;;;;;;5052482;28;20075;-73
2021/04/19 11:59:41;;;;;;;3.90;2.28;;;15.60;99.90;;;;;;5053123;28;20094;-73
2021/04/19 12:02:07;;;;;;;4.45;2.50;;;15.70;99.90;;;;;;5056374;28;20123;-73
2021/04/19 12:04:34;;;;;;;3.80;2.13;;;15.90;98.70;;;;;;5051785;28;20522;-72
2021/04/19 12:07:00;;;;;;;4.65;2.38;;;15.90;98.50;;;;;;5062904;28;20037;-72
2021/04/19 12:09:25;;;;;;;3.53;1.90;;;15.90;98.10;;;;;;5052440;28;20044;-71
2021/04/19 12:11:51;;;;;;;4.75;2.42;;;16.00;98.30;;;;;;5054503;28;20020;-72
2021/04/19 12:14:17;;;;;;;3.60;2.25;;;16.20;97.20;;;;;;5052698;28;20036;-72
2021/04/19 12:16:43;;;;;;;4.88;2.30;;;16.30;95.50;;;;;;5052310;28;20240;-71
2021/04/19 12:19:08;;;;;;;3.92;1.98;;;16.30;93.70;;;;;;5051810;28;20029;-72
2021/04/19 12:21:34;;;;;;;4.53;2.30;;;16.40;92.40;;;;;;5055019;28;20036;-72
2021/04/19 12:24:00;;;;;;;3.45;2.28;;;16.30;92.40;;;;;;5050944;28;20083;-72
2021/04/19 12:26:26;;;;;;;4.15;2.35;;;16.30;92.80;;;;;;5053456;28;20451;-71
2021/04/19 12:28:51;;;;;;;3.95;2.33;;;16.40;92.80;;;;;;5056071;28;20049;-72
2021/04/19 12:31:17;;;;;;;4.28;2.30;;;16.30;93.20;;;;;;5053397;28;20032;-73
2021/04/19 12:33:44;;;;;;;3.20;2.15;;;16.30;92.90;;;;;;5055410;28;20214;-72
2021/04/19 12:36:10;;;;;;;5.65;2.40;;;16.30;91.30;;;;;;5050808;28;20043;-73
2021/04/19 12:38:37;;;;;;;3.35;2.10;;;16.00;93.20;;;;;;5052600;28;20033;-73
2021/04/19 12:41:02;;;;;;;4.97;2.22;;;15.90;94.00;;;;;;5059801;28;20029;-73
2021/04/19 12:43:28;;;;;;;3.78;2.10;;;15.70;93.80;;;;;;5061123;28;20048;-72
2021/04/19 12:45:53;;;;;;;3.83;2.20;;;15.60;94.30;;;;;;5087080;28;20121;-71
2021/04/19 12:48:19;;;;;;;7.40;2.78;;;15.70;95.70;;;;;;5048793;28;20079;-72
2021/04/19 12:50:45;;;;;;;4.68;2.63;;;15.80;93.80;;;;;;5053467;28;20036;-73
2021/04/19 12:53:10;;;;;;;2.95;1.65;;;15.90;93.70;;;;;;5054264;28;20506;-74
2021/04/19 12:55:38;;;;;;;4.32;2.58;;;15.80;93.40;;;;;;5052280;28;20082;-72